Latest Weather Observations for Lochington

IDQ60801

Issued at 6:35 pm EST Saturday 29 November 2014 (issued every 30 minutes, with the page automatically refreshed every 10 minutes)

About weather observations | Map of weather stations | Latest weather observations for QLD | Other Formats
Station Details ID: 035139 Name: LOCHINGTON Lat: -23.94 Lon: 147.53 Height: 267.19 m
Data from the previous 72 hours. | See also: Recent months at Lochington
Date/Time
EST
Temp
°C
App
Temp
°C
Dew
Point
Rel
Hum
%
Delta-T
°C
Wind Press
QNH
hPa
Press
MSL
hPa
Rain
since 9 am
mm
Dir
 
Spd
km/h
Gust
km/h
Spd
kts
Gust
kts
29/06:30pm 30.1 27.5 12.1 33 10.7 E 17 26 9 14 1011.2 1009.6 0.2
29/06:00pm 30.9 26.9 11.8 31 11.3 E 24 35 13 19 1011.0 1009.4 0.2
29/05:30pm 31.8 30.6 11.6 29 11.9 ENE 9 17 5 9 1010.6 1009.0 0.2
29/05:00pm 31.9 29.4 11.1 28 12.2 ENE 15 22 8 12 1010.7 1009.1 0.2
29/04:30pm 32.0 28.9 11.7 28 12.0 E 19 30 10 16 1010.7 1009.1 0.2
29/04:00pm 33.2 31.4 12.2 28 12.6 ENE 13 24 7 13 1010.8 1009.2 0.2
29/03:30pm 31.4 29.1 11.7 29 11.6 ENE 15 28 8 15 1011.2 1009.6 0.2
29/03:00pm 32.1 30.0 11.3 28 12.3 NE 13 22 7 12 1011.7 1010.1 0.2
29/02:30pm 31.7 30.6 12.0 30 11.7 ENE 9 17 5 9 1012.4 1010.7 0.2
29/02:00pm 31.2 28.2 12.1 31 11.4 E 19 28 10 15 1012.9 1011.2 0.2
29/01:30pm 31.5 30.5 12.3 31 11.5 NE 9 20 5 11 1013.2 1011.5 0.2
29/01:00pm 30.3 29.6 13.1 34 10.3 ENE 9 24 5 13 1013.7 1012.1 0.2
29/12:30pm 30.0 28.3 12.4 34 10.5 E 13 20 7 11 1014.1 1012.5 0.2
29/12:00pm 29.4 27.8 14.0 39 9.4 ENE 15 24 8 13 1014.5 1012.9 0.2
29/11:30am 28.9 28.1 15.1 43 8.5 ENE 13 26 7 14 1015.0 1013.4 0.2
29/11:00am 29.5 28.3 16.0 44 8.5 ENE 17 32 9 17 1015.4 1013.8 0.2
29/10:30am 27.6 26.6 15.6 48 7.4 ENE 15 28 8 15 1015.7 1014.1 0.2
29/10:00am 28.7 28.6 16.9 48 7.5 ENE 13 24 7 13 1016.2 1014.5 0.2
29/09:30am 25.8 24.5 15.8 54 6.2 E 17 28 9 15 1016.5 1014.8 0.2
29/09:00am 25.3 23.7 15.9 56 5.8 ENE 19 28 10 15 1016.5 1014.8 1.0
29/08:30am 24.9 23.5 16.6 60 5.2 ENE 19 30 10 16 1016.7 1015.0 1.0
29/08:00am 24.2 22.9 16.7 63 4.7 ENE 19 26 10 14 1017.0 1015.4 1.0
29/07:30am 24.1 23.4 17.4 66 4.2 E 17 28 9 15 1016.8 1015.2 1.0
29/07:00am 23.1 22.4 17.3 70 3.6 ENE 17 26 9 14 1016.8 1015.2 1.0
29/06:30am 21.9 22.3 17.3 75 2.9 ENE 11 19 6 10 1016.2 1014.5 1.0
29/06:00am 20.6 22.2 16.8 79 2.3 E 4 6 2 3 1016.2 1014.5 1.0
29/05:30am 19.6 20.4 16.3 81 2.0 ENE 7 9 4 5 1015.6 1014.0 1.0
29/05:00am 19.2 19.9 15.7 80 2.1 NE 6 7 3 4 1015.2 1013.6 1.0
29/04:30am 19.6 20.1 15.5 77 2.5 ENE 7 9 4 5 1015.0 1013.4 1.0
29/04:00am 20.0 20.1 15.4 75 2.8 ENE 9 13 5 7 1014.8 1013.2 1.0
29/03:30am 19.9 20.3 15.3 75 2.7 E 7 13 4 7 1014.8 1013.2 1.0
29/03:00am 20.5 19.6 14.8 70 3.4 ENE 13 19 7 10 1014.5 1012.9 1.0
29/02:30am 20.4 19.8 14.5 69 3.5 E 11 15 6 8 1014.8 1013.2 1.0
29/02:00am 20.5 20.0 13.9 66 3.9 E 9 15 5 8 1014.8 1013.2 1.0
29/01:30am 20.9 19.6 13.8 64 4.1 E 13 17 7 9 1015.1 1013.5 1.0
29/01:00am 21.5 20.3 15.1 67 3.8 E 15 24 8 13 1015.1 1013.5 1.0
29/12:30am 21.6 21.7 16.6 73 3.1 E 11 13 6 7 1015.3 1013.7 1.0
29/12:00am 21.6 22.6 17.8 79 2.4 E 9 13 5 7 1015.4 1013.8 1.0
 
Date/Time
EST
Temp
°C
App
Temp
°C
Dew
Point
Rel
Hum
%
Delta-T
°C
Wind Press
QNH
hPa
Press
MSL
hPa
Rain
since 9 am
mm
Dir
 
Spd
km/h
Gust
km/h
Spd
kts
Gust
kts
28/11:30pm 21.2 22.8 17.8 81 2.1 ESE 6 7 3 4 1016.3 1014.6 1.0
28/11:00pm 20.9 22.4 17.5 81 2.1 SE 6 7 3 4 1016.4 1014.7 1.0
28/10:30pm 20.7 21.3 16.7 78 2.5 NE 9 11 5 6 1016.6 1014.9 1.0
28/10:00pm 22.1 21.4 16.4 70 3.5 ESE 15 26 8 14 1016.7 1015.0 1.0
28/09:30pm 22.8 22.0 17.9 74 3.1 E 19 28 10 15 1016.4 1014.7 0.6
28/09:00pm 24.0 23.5 16.0 61 4.9 S 13 26 7 14 1015.1 1013.5 0.0
28/08:30pm 26.4 25.4 14.5 48 7.2 SSW 13 32 7 17 1014.0 1012.4 0.0
28/08:00pm 28.1 27.5 11.6 36 9.6 NE 6 7 3 4 1013.4 1011.8 0.0
28/07:30pm 28.2 27.3 12.5 37 9.3 NNE 9 15 5 8 1012.8 1011.1 0.0
28/07:00pm 28.4 26.9 13.1 39 9.1 NE 13 17 7 9 1012.5 1010.8 0.0
28/06:30pm 28.9 27.3 13.9 39 9.1 NE 15 24 8 13 1012.4 1010.7 0.0
28/06:00pm 30.1 28.1 13.8 37 9.9 NE 17 24 9 13 1011.7 1010.1 0.0
28/05:30pm 30.8 28.7 14.8 37 9.9 NE 19 26 10 14 1011.5 1009.9 0.0
28/05:00pm 32.4 30.7 13.6 32 11.5 ENE 15 24 8 13 1011.0 1009.4 0.0
28/04:30pm 32.3 29.6 13.0 31 11.7 ENE 19 26 10 14 1010.9 1009.3 0.0
28/04:00pm 33.0 31.6 12.1 28 12.5 ENE 11 22 6 12 1010.9 1009.3 0.0
28/03:30pm 33.6 32.7 13.6 29 12.3 E 11 19 6 10 1011.4 1009.8 0.0
28/03:00pm 32.5 31.3 14.1 32 11.3 E 13 20 7 11 1011.8 1010.2 0.0
28/02:30pm 31.2 30.7 14.8 37 10.2 E 11 20 6 11 1012.5 1010.8 0.0
28/02:00pm 31.2 30.7 14.8 37 10.2 ENE 11 22 6 12 1013.3 1011.6 0.0
28/01:30pm 31.5 32.2 15.5 38 10.0 SE 6 19 3 10 1014.0 1012.4 0.0
28/01:00pm 30.7 31.0 15.9 40 9.3 SE 9 20 5 11 1014.4 1012.8 0.0
28/12:30pm 30.6 30.4 15.8 40 9.3 ENE 11 20 6 11 1014.7 1013.1 0.0
28/12:00pm 30.2 29.7 16.9 44 8.5 NE 15 28 8 15 1015.1 1013.5 0.0
28/11:30am 29.2 28.0 17.1 48 7.7 ENE 19 33 10 18 1015.3 1013.7 0.0
28/11:00am 28.2 26.7 16.8 50 7.2 ENE 20 30 11 16 1015.6 1014.0 0.0
28/10:30am 27.8 26.3 16.4 50 7.1 ENE 19 30 10 16 1015.8 1014.2 0.0
28/10:00am 26.9 25.4 16.8 54 6.3 NE 20 30 11 16 1016.0 1014.4 0.0
28/09:30am 27.0 25.5 16.3 52 6.7 NE 19 28 10 15 1016.5 1014.8 0.0
28/09:00am 27.4 25.9 16.4 51 6.9 NE 19 26 10 14 1016.5 1014.8 0.0
28/08:30am 25.4 24.7 16.5 58 5.5 NNE 15 24 8 13 1016.6 1014.9 0.0
28/08:00am 25.9 25.6 17.3 59 5.4 NE 15 24 8 13 1016.7 1015.0 0.0
28/07:30am 24.5 24.1 17.2 63 4.6 ENE 15 22 8 12 1016.7 1015.0 0.0
28/07:00am 23.8 23.7 17.8 69 3.8 ENE 15 20 8 11 1016.4 1014.7 0.0
28/06:30am 23.4 24.0 17.6 70 3.6 NE 11 19 6 10 1016.3 1014.6 0.0
28/06:00am 23.0 23.3 17.0 69 3.7 ENE 11 20 6 11 1015.8 1014.2 0.0
28/05:30am 22.7 22.8 16.5 68 3.8 ENE 11 17 6 9 1015.5 1013.9 0.0
28/05:00am 21.9 22.0 15.5 67 3.9 E 9 11 5 6 1015.1 1013.5 0.0
28/04:30am 22.6 22.7 15.4 64 4.4 E 9 13 5 7 1014.5 1012.9 0.0
28/04:00am 23.1 23.7 15.7 63 4.5 ENE 7 11 4 6 1014.1 1012.5 0.0
28/03:30am 23.4 23.9 15.5 61 4.8 ENE 7 11 4 6 1013.4 1011.8 0.0
28/03:00am 23.8 23.8 15.3 59 5.2 ENE 9 11 5 6 1013.1 1011.4 0.0
28/02:30am 24.1 24.5 15.3 58 5.3 ENE 7 11 4 6 1013.1 1011.4 0.0
28/02:00am 24.4 24.8 15.3 57 5.5 ENE 7 9 4 5 1012.9 1011.2 0.0
28/01:30am 24.9 25.3 15.2 54 5.9 ENE 7 11 4 6 1013.1 1011.4 0.0
28/01:00am 25.2 25.1 14.9 52 6.2 ENE 9 13 5 7 1013.2 1011.5 0.0
28/12:30am 25.1 24.5 13.6 49 6.8 ENE 9 13 5 7 1013.3 1011.6 0.0
28/12:00am 24.9 24.4 12.8 47 7.1 E 7 9 4 5 1013.2 1011.5 0.0
 
Date/Time
EST
Temp
°C
App
Temp
°C
Dew
Point
Rel
Hum
%
Delta-T
°C
Wind Press
QNH
hPa
Press
MSL
hPa
Rain
since 9 am
mm
Dir
 
Spd
km/h
Gust
km/h
Spd
kts
Gust
kts
27/11:30pm 24.5 25.1 11.8 45 7.3 CALM 0 0 0 0 1013.2 1011.5 0.0
27/11:00pm 25.0 25.6 11.9 44 7.6 CALM 0 0 0 0 1013.2 1011.5 0.0
27/10:30pm 25.8 25.6 11.9 42 8.0 ESE 4 4 2 2 1013.1 1011.4 0.0
27/10:00pm 27.2 26.6 11.7 38 9.0 NE 6 7 3 4 1013.1 1011.4 0.0
27/09:30pm 27.6 26.8 11.6 37 9.3 NNE 7 9 4 5 1013.0 1011.3 0.0
27/09:00pm 28.1 27.3 11.6 36 9.6 NNE 7 9 4 5 1012.8 1011.1 0.0
27/08:30pm 28.7 27.5 11.7 35 9.9 NNE 9 9 5 5 1012.6 1010.9 0.0
27/08:00pm 29.2 28.0 11.7 34 10.3 NNE 9 9 5 5 1012.4 1010.7 0.0
27/07:30pm 29.9 29.0 11.4 32 10.8 NNE 7 11 4 6 1012.3 1010.6 0.0
27/07:00pm 30.8 29.5 11.2 30 11.5 NNE 9 15 5 8 1011.9 1010.3 0.0
27/06:30pm 31.5 30.2 11.3 29 11.9 NE 9 15 5 8 1011.7 1010.1 0.0
27/06:00pm 32.5 30.1 9.9 25 13.1 ENE 13 19 7 10 1011.6 1010.0 0.0
27/05:30pm 33.0 31.5 10.4 25 13.2 NE 9 13 5 7 1011.3 1009.7 0.0
27/05:00pm 33.8 32.8 11.0 25 13.5 E 7 20 4 11 1011.1 1009.5 0.0
27/04:30pm 34.6 33.1 10.4 23 14.2 E 9 15 5 8 1011.0 1009.4 0.0
27/04:00pm 33.9 32.7 11.7 26 13.3 NE 9 17 5 9 1011.2 1009.6 0.0
27/03:30pm 34.0 32.3 11.2 25 13.5 SE 11 19 6 10 1011.5 1009.9 0.0
27/03:00pm 33.6 30.7 10.9 25 13.4 E 17 26 9 14 1012.0 1010.4 0.0
27/02:30pm 33.4 31.0 11.3 26 13.1 ENE 15 24 8 13 1012.4 1010.7 0.0
27/02:00pm 32.9 30.7 10.9 26 12.9 E 13 22 7 12 1012.7 1011.0 0.0
27/01:30pm 32.8 31.1 11.3 27 12.7 ENE 11 24 6 13 1013.1 1011.4 0.0
27/01:00pm 31.7 30.5 11.5 29 11.9 E 9 20 5 11 1013.3 1011.6 0.0
27/12:30pm 31.6 30.3 12.4 31 11.5 E 11 20 6 11 1013.8 1012.2 0.0
27/12:00pm 30.7 29.3 12.1 32 11.0 E 11 19 6 10 1014.2 1012.6 0.0
27/11:30am 30.2 28.7 13.0 34 10.3 E 13 20 7 11 1014.5 1012.9 0.0
27/11:00am 29.9 28.4 13.2 36 10.0 NE 13 22 7 12 1015.0 1013.4 0.0
27/10:30am 29.3 27.9 13.5 38 9.5 E 13 22 7 12 1015.6 1014.0 0.0
27/10:00am 29.1 28.2 14.9 42 8.7 E 13 22 7 12 1015.9 1014.3 0.0
27/09:30am 27.8 26.4 15.5 47 7.6 E 17 24 9 13 1016.6 1014.9 0.0
27/09:00am 26.5 26.2 15.5 50 6.8 ENE 11 20 6 11 1016.7 1015.0 0.6
27/08:30am 26.5 26.3 16.7 55 6.1 NE 13 20 7 11 1017.0 1015.4 0.6
27/08:00am 25.9 24.9 16.5 56 5.9 ENE 17 22 9 12 1016.9 1015.3 0.6
27/07:30am 25.1 25.3 17.6 63 4.7 NE 13 20 7 11 1016.8 1015.2 0.6
27/07:00am 25.0 25.0 18.2 66 4.3 NE 15 24 8 13 1016.7 1015.0 0.4
27/06:30am 23.7 23.5 18.6 73 3.3 NNE 17 20 9 11 1016.4 1014.7 0.4
27/06:00am 23.7 24.3 18.6 73 3.3 NE 13 19 7 10 1015.9 1014.3 0.4
27/05:30am 23.3 25.1 18.8 76 2.9 NE 7 11 4 6 1015.4 1013.8 0.4
27/05:00am 23.3 25.1 18.8 76 2.9 NE 7 11 4 6 1015.1 1013.5 0.4
27/04:30am 23.2 25.3 18.9 77 2.8 NE 6 11 3 6 1014.8 1013.2 0.4
27/04:00am 23.0 24.9 18.5 76 2.9 ENE 6 9 3 5 1014.6 1013.0 0.4
27/03:30am 23.0 23.9 18.5 76 2.9 ENE 11 17 6 9 1014.4 1012.8 0.4
27/03:00am 23.1 24.5 18.6 76 2.9 ENE 9 17 5 9 1014.4 1012.8 0.4
27/02:30am 23.2 23.6 18.1 73 3.2 E 13 19 7 10 1014.5 1012.9 0.4
27/02:00am 23.3 23.3 17.3 69 3.7 E 13 20 7 11 1014.5 1012.9 0.4
27/01:30am 23.9 22.4 16.7 64 4.5 E 20 28 11 15 1014.4 1012.8 0.4
27/01:00am 24.3 23.9 17.1 64 4.5 ENE 15 22 8 12 1014.6 1013.0 0.4
27/12:30am 23.9 25.1 18.3 71 3.6 NNE 9 15 5 8 1014.9 1013.3 0.4
27/12:00am 23.8 24.7 18.4 72 3.4 N 11 17 6 9 1015.1 1013.5 0.4
 
Date/Time
EST
Temp
°C
App
Temp
°C
Dew
Point
Rel
Hum
%
Delta-T
°C
Wind Press
QNH
hPa
Press
MSL
hPa
Rain
since 9 am
mm
Dir
 
Spd
km/h
Gust
km/h
Spd
kts
Gust
kts
26/11:30pm 24.5 25.6 17.0 63 4.7 E 7 11 4 6 1015.3 1013.7 0.4
26/11:00pm 24.5 24.3 16.7 61 4.8 E 13 20 7 11 1015.4 1013.8 0.4
26/10:30pm 24.4 24.1 17.4 65 4.4 NE 15 20 8 11 1015.7 1014.1 0.4
26/10:00pm 23.5 22.5 17.5 69 3.8 ENE 19 28 10 15 1015.8 1014.2 0.4
26/09:30pm 24.4 24.9 17.4 65 4.4 S 11 17 6 9 1014.9 1013.3 0.4
26/09:00pm 24.2 25.0 17.2 65 4.4 S 9 15 5 8 1014.8 1013.2 0.4
26/08:30pm 24.4 25.0 17.6 66 4.3 S 11 22 6 12 1014.4 1012.8 0.4
26/08:00pm 25.6 24.4 17.5 61 5.1 SSE 20 33 11 18 1014.3 1012.7 0.4
26/07:30pm 26.1 25.2 17.7 60 5.3 SSE 19 28 10 15 1014.1 1012.5 0.4
26/07:00pm 26.4 26.5 18.3 61 5.2 SSE 15 24 8 13 1013.4 1011.8 0.4

Other Formats:

Comma delimited format used in spreadsheet applications
http://www.bom.gov.au/fwo/IDQ60801/IDQ60801.94399.axf

JavaScript Object Notation format (JSON) in row-major order
http://www.bom.gov.au/fwo/IDQ60801/IDQ60801.94399.json